Time;durP1;ratioP1;P1;durP2;ratioP2;P2;SDS_P1;SDS_P2;PMS_P1;PMS_P2;Temp;Humidity;BMP_temperature;BMP_pressure;BME280_temperature;BME280_humidity;BME280_pressure;Samples;Min_cycle;Max_cycle;Signal;HPM_P1;HPM_P2
2021/10/27 00:00:29;;;;;;;;;;;;;;;;;;1019522;29;945;-18
2021/10/27 00:01:00;;;;;;;;;;;;;;;;;;1019214;29;898;-18
2021/10/27 00:01:32;;;;;;;;;;;;;;;;;;1019131;29;890;-17
2021/10/27 00:02:02;;;;;;;;;;;;;;;;;;1018942;29;1468;-17
2021/10/27 00:02:33;;;;;;;;;;;;;;;;;;1019224;29;851;-17
2021/10/27 00:03:03;;;;;;;;;;;;;;;;;;1019374;29;1037;-17
2021/10/27 00:03:33;;;;;;;;;;;;;;;;;;1019490;29;906;-17
2021/10/27 00:04:04;;;;;;;;;;;;;;;;;;1018656;29;994;-17
2021/10/27 00:04:34;;;;;;;;;;;;;;;;;;1018887;29;1072;-18
2021/10/27 00:05:05;;;;;;;;;;;;;;;;;;1018656;29;902;-18
2021/10/27 00:05:36;;;;;;;;;;;;;;;;;;1014941;29;974;-17
2021/10/27 00:06:06;;;;;;;;;;;;;;;;;;1019213;29;800;-17
2021/10/27 00:06:38;;;;;;;;;;;;;;;;;;1019099;29;998;-18
2021/10/27 00:07:08;;;;;;;;;;;;;;;;;;1019186;29;974;-18
2021/10/27 00:07:38;;;;;;;;;;;;;;;;;;1019493;29;1001;-18
2021/10/27 00:08:09;;;;;;;;;;;;;;;;;;1018753;29;1101;-18
2021/10/27 00:08:40;;;;;;;;;;;;;;;;;;1018432;29;1240;-17
2021/10/27 00:09:10;;;;;;;;;;;;;;;;;;1018715;29;1039;-18
2021/10/27 00:09:41;;;;;;;;;;;;;;;;;;1018796;29;998;-18
2021/10/27 00:10:11;;;;;;;;;;;;;;;;;;1018883;29;927;-18
2021/10/27 00:10:43;;;;;;;;;;;;;;;;;;1019213;29;1624;-18
2021/10/27 00:11:13;;;;;;;;;;;;;;;;;;1019480;29;1073;-18
2021/10/27 00:11:44;;;;;;;;;;;;;;;;;;1019402;29;1060;-18
2021/10/27 00:12:15;;;;;;;;;;;;;;;;;;1018752;29;1187;-18
2021/10/27 00:12:46;;;;;;;;;;;;;;;;;;1014761;29;1152;-17
2021/10/27 00:13:16;;;;;;;;;;;;;;;;;;1014784;29;1016;-17
2021/10/27 00:13:47;;;;;;;;;;;;;;;;;;1015084;29;882;-18
2021/10/27 00:14:17;;;;;;;;;;;;;;;;;;1018809;29;1505;-18
2021/10/27 00:14:48;;;;;;;;;;;;;;;;;;1019335;29;1169;-17
2021/10/27 00:15:18;;;;;;;;;;;;;;;;;;1019282;29;1149;-18
2021/10/27 00:15:48;;;;;;;;;;;;;;;;;;1019463;29;956;-18
2021/10/27 00:16:19;;;;;;;;;;;;;;;;;;1019476;29;780;-17
2021/10/27 00:16:49;;;;;;;;;;;;;;;;;;1019579;29;961;-17
2021/10/27 00:17:20;;;;;;;;;;;;;;;;;;1018371;29;1516;-17
2021/10/27 00:17:50;;;;;;;;;;;;;;;;;;1022754;29;1547;-18
2021/10/27 00:18:21;;;;;;;;;;;;;;;;;;1021866;29;1976;-18
2021/10/27 00:18:51;;;;;;;;;;;;;;;;;;1022677;29;1178;-17
2021/10/27 00:19:21;;;;;;;;;;;;;;;;;;1018635;29;1304;-17
2021/10/27 00:19:51;;;;;;;;;;;;;;;;;;1019409;29;1164;-17
2021/10/27 00:20:22;;;;;;;;;;;;;;;;;;1019368;29;906;-18
2021/10/27 00:20:52;;;;;;;;;;;;;;;;;;1019653;29;863;-17
2021/10/27 00:21:22;;;;;;;;;;;;;;;;;;1019058;29;1375;-18
2021/10/27 00:21:53;;;;;;;;;;;;;;;;;;1019552;29;1103;-17
2021/10/27 00:22:24;;;;;;;;;;;;;;;;;;1018891;29;1555;-17
2021/10/27 00:22:54;;;;;;;;;;;;;;;;;;1018775;29;1342;-17
2021/10/27 00:23:25;;;;;;;;;;;;;;;;;;1019049;29;872;-18
2021/10/27 00:23:55;;;;;;;;;;;;;;;;;;1019111;29;966;-18
2021/10/27 00:24:25;;;;;;;;;;;;;;;;;;1019412;29;891;-17
2021/10/27 00:24:56;;;;;;;;;;;;;;;;;;1019654;29;950;-18
2021/10/27 00:25:26;;;;;;;;;;;;;;;;;;1019260;29;982;-18
2021/10/27 00:25:56;;;;;;;;;;;;;;;;;;1019564;29;922;-17
2021/10/27 00:26:27;;;;;;;;;;;;;;;;;;1019282;29;855;-18
2021/10/27 00:26:57;;;;;;;;;;;;;;;;;;1019592;29;954;-18
2021/10/27 00:27:28;;;;;;;;;;;;;;;;;;1018680;29;980;-18
2021/10/27 00:27:58;;;;;;;;;;;;;;;;;;1018685;29;1113;-17
2021/10/27 00:28:28;;;;;;;;;;;;;;;;;;1018656;29;854;-18
2021/10/27 00:28:59;;;;;;;;;;;;;;;;;;1018729;29;875;-17
2021/10/27 00:29:29;;;;;;;;;;;;;;;;;;1019421;29;891;-18
2021/10/27 00:30:00;;;;;;;;;;;;;;;;;;1019474;29;942;-18
2021/10/27 00:30:30;;;;;;;;;;;;;;;;;;1019327;29;935;-18
2021/10/27 00:31:00;;;;;;;;;;;;;;;;;;1019540;29;946;-17
2021/10/27 00:31:31;;;;;;;;;;;;;;;;;;1019412;29;950;-18
2021/10/27 00:32:01;;;;;;;;;;;;;;;;;;1019426;29;787;-18
2021/10/27 00:32:31;;;;;;;;;;;;;;;;;;1019448;29;954;-18
2021/10/27 00:33:02;;;;;;;;;;;;;;;;;;1019407;29;824;-18
2021/10/27 00:33:32;;;;;;;;;;;;;;;;;;1019410;29;930;-18
2021/10/27 00:34:02;;;;;;;;;;;;;;;;;;1019479;29;959;-17
2021/10/27 00:34:33;;;;;;;;;;;;;;;;;;1019042;29;1625;-18
2021/10/27 00:35:03;;;;;;;;;;;;;;;;;;1019462;29;1183;-18
2021/10/27 00:35:34;;;;;;;;;;;;;;;;;;1019302;29;1199;-18
2021/10/27 00:36:07;;;;;;;;;;;;;;;;;;1019452;29;848;-18
2021/10/27 00:36:37;;;;;;;;;;;;;;;;;;1019446;29;958;-18
2021/10/27 00:37:07;;;;;;;;;;;;;;;;;;1019425;29;828;-18
2021/10/27 00:37:38;;;;;;;;;;;;;;;;;;1018698;29;974;-18
2021/10/27 00:38:08;;;;;;;;;;;;;;;;;;1018497;29;1915;-17
2021/10/27 00:38:39;;;;;;;;;;;;;;;;;;1019578;29;1700;-18
2021/10/27 00:39:10;;;;;;;;;;;;;;;;;;1014704;29;957;-18
2021/10/27 00:39:40;;;;;;;;;;;;;;;;;;1010611;29;1076;-18
2021/10/27 00:40:12;;;;;;;;;;;;;;;;;;1010873;29;1108;-18
2021/10/27 00:40:42;;;;;;;;;;;;;;;;;;1010759;29;1288;-18
2021/10/27 00:41:12;;;;;;;;;;;;;;;;;;1018671;29;1225;-18
2021/10/27 00:41:43;;;;;;;;;;;;;;;;;;1015510;29;1381;-17
2021/10/27 00:42:14;;;;;;;;;;;;;;;;;;1015489;29;950;-18
2021/10/27 00:42:44;;;;;;;;;;;;;;;;;;1022540;29;1190;-18
2021/10/27 00:43:14;;;;;;;;;;;;;;;;;;1022526;29;1224;-18
2021/10/27 00:43:45;;;;;;;;;;;;;;;;;;1022498;29;997;-18
2021/10/27 00:44:18;;;;;;;;;;;;;;;;;;1022819;29;895;-17
2021/10/27 00:44:49;;;;;;;;;;;;;;;;;;1015377;29;935;-17
2021/10/27 00:45:19;;;;;;;;;;;;;;;;;;1015434;29;986;-17
2021/10/27 00:45:49;;;;;;;;;;;;;;;;;;1015668;29;927;-17
2021/10/27 00:46:22;;;;;;;;;;;;;;;;;;1018440;29;1027;-18
2021/10/27 00:47:05;;;;;;;;;;;;;;;;;;1018790;29;938;-18
2021/10/27 00:47:36;;;;;;;;;;;;;;;;;;1018553;29;1059;-18
2021/10/27 00:48:06;;;;;;;;;;;;;;;;;;1017173;29;1026;-18
2021/10/27 00:48:38;;;;;;;;;;;;;;;;;;1015275;29;946;-18
2021/10/27 00:49:09;;;;;;;;;;;;;;;;;;1015479;29;919;-17
2021/10/27 00:49:41;;;;;;;;;;;;;;;;;;1022449;29;1382;-17
2021/10/27 00:50:11;;;;;;;;;;;;;;;;;;1022607;29;978;-18
2021/10/27 00:50:42;;;;;;;;;;;;;;;;;;1022600;29;930;-17
2021/10/27 00:51:12;;;;;;;;;;;;;;;;;;1022369;29;1087;-18
2021/10/27 00:51:43;;;;;;;;;;;;;;;;;;1015445;29;907;-17
2021/10/27 00:52:15;;;;;;;;;;;;;;;;;;1015569;29;931;-18
2021/10/27 00:52:46;;;;;;;;;;;;;;;;;;1015338;29;878;-18
2021/10/27 00:53:16;;;;;;;;;;;;;;;;;;1022519;29;1112;-18
2021/10/27 00:53:47;;;;;;;;;;;;;;;;;;1022629;29;1086;-18
2021/10/27 00:54:18;;;;;;;;;;;;;;;;;;1022551;29;1052;-17
2021/10/27 00:54:50;;;;;;;;;;;;;;;;;;1022590;29;997;-18
2021/10/27 00:55:20;;;;;;;;;;;;;;;;;;1015203;29;1029;-18
2021/10/27 00:55:51;;;;;;;;;;;;;;;;;;1015636;29;820;-18
2021/10/27 00:56:21;;;;;;;;;;;;;;;;;;1015371;29;1370;-18
2021/10/27 00:56:52;;;;;;;;;;;;;;;;;;1015189;29;1526;-17
2021/10/27 00:57:23;;;;;;;;;;;;;;;;;;1015235;29;1164;-18
2021/10/27 00:57:55;;;;;;;;;;;;;;;;;;1015411;29;1311;-17
2021/10/27 00:58:26;;;;;;;;;;;;;;;;;;1021922;29;1907;-17
2021/10/27 00:58:56;;;;;;;;;;;;;;;;;;1022774;29;950;-18
2021/10/27 00:59:27;;;;;;;;;;;;;;;;;;1022046;29;1274;-17
2021/10/27 00:59:57;;;;;;;;;;;;;;;;;;1022283;29;993;-18
2021/10/27 01:00:28;;;;;;;;;;;;;;;;;;1015317;29;1342;-17
2021/10/27 01:00:58;;;;;;;;;;;;;;;;;;1015335;29;951;-17
2021/10/27 01:01:29;;;;;;;;;;;;;;;;;;1018403;29;1199;-18
2021/10/27 01:01:59;;;;;;;;;;;;;;;;;;1018683;29;981;-18
2021/10/27 01:02:29;;;;;;;;;;;;;;;;;;1018602;29;1044;-18
2021/10/27 01:03:00;;;;;;;;;;;;;;;;;;1018683;29;816;-18
2021/10/27 01:03:32;;;;;;;;;;;;;;;;;;1015115;29;832;-17
2021/10/27 01:04:03;;;;;;;;;;;;;;;;;;1015601;29;1009;-18
2021/10/27 01:04:34;;;;;;;;;;;;;;;;;;1015051;29;1349;-17
2021/10/27 01:05:05;;;;;;;;;;;;;;;;;;1015457;29;1147;-17
2021/10/27 01:05:35;;;;;;;;;;;;;;;;;;1015306;29;997;-18
2021/10/27 01:06:05;;;;;;;;;;;;;;;;;;1015432;29;1273;-18
2021/10/27 01:06:36;;;;;;;;;;;;;;;;;;1015426;29;906;-17
2021/10/27 01:07:06;;;;;;;;;;;;;;;;;;1015624;29;788;-18
2021/10/27 01:07:36;;;;;;;;;;;;;;;;;;1015273;29;894;-18
2021/10/27 01:08:07;;;;;;;;;;;;;;;;;;1015599;29;986;-18
2021/10/27 01:08:37;;;;;;;;;;;;;;;;;;1014914;29;1098;-18
2021/10/27 01:09:08;;;;;;;;;;;;;;;;;;1015570;29;861;-18
2021/10/27 01:09:38;;;;;;;;;;;;;;;;;;1015373;29;961;-18
2021/10/27 01:10:09;;;;;;;;;;;;;;;;;;1022790;28;1403;-17
2021/10/27 01:10:40;;;;;;;;;;;;;;;;;;1019236;29;1029;-18
2021/10/27 01:11:11;;;;;;;;;;;;;;;;;;1019427;29;993;-17
2021/10/27 01:11:41;;;;;;;;;;;;;;;;;;1019402;29;1052;-17
2021/10/27 01:12:12;;;;;;;;;;;;;;;;;;1015563;29;982;-18
2021/10/27 01:12:42;;;;;;;;;;;;;;;;;;1016171;29;811;-18
2021/10/27 01:13:13;;;;;;;;;;;;;;;;;;1016428;29;955;-18
2021/10/27 01:13:43;;;;;;;;;;;;;;;;;;1016030;29;1054;-17
2021/10/27 01:14:14;;;;;;;;;;;;;;;;;;1016210;29;914;-18
2021/10/27 01:15:05;;;;;;;;;;;;;;;;;;1016250;29;895;-18
2021/10/27 01:15:41;;;;;;;;;;;;;;;;;;1015579;29;1106;-17
2021/10/27 01:16:12;;;;;;;;;;;;;;;;;;1023383;29;1048;-18
2021/10/27 01:16:44;;;;;;;;;;;;;;;;;;1019295;29;1085;-18
2021/10/27 01:17:15;;;;;;;;;;;;;;;;;;1019486;29;1207;-17
2021/10/27 01:17:46;;;;;;;;;;;;;;;;;;1018642;29;926;-18
2021/10/27 01:18:16;;;;;;;;;;;;;;;;;;1011859;29;1986;-18
2021/10/27 01:18:46;;;;;;;;;;;;;;;;;;1015828;29;1463;-17
2021/10/27 01:19:17;;;;;;;;;;;;;;;;;;1015803;29;1227;-17
2021/10/27 01:19:48;;;;;;;;;;;;;;;;;;1016180;29;1006;-18
2021/10/27 01:20:18;;;;;;;;;;;;;;;;;;1016147;29;1179;-18
2021/10/27 01:20:49;;;;;;;;;;;;;;;;;;1016165;29;855;-18
2021/10/27 01:21:20;;;;;;;;;;;;;;;;;;1023330;29;949;-18
2021/10/27 01:21:50;;;;;;;;;;;;;;;;;;1023307;29;981;-18
2021/10/27 01:22:24;;;;;;;;;;;;;;;;;;1015430;29;938;-18
2021/10/27 01:22:54;;;;;;;;;;;;;;;;;;1010796;29;1417;-17
2021/10/27 01:23:25;;;;;;;;;;;;;;;;;;1007494;29;1198;-17
2021/10/27 01:23:56;;;;;;;;;;;;;;;;;;1007682;29;1145;-18
2021/10/27 01:24:26;;;;;;;;;;;;;;;;;;1007694;29;1124;-17
2021/10/27 01:24:57;;;;;;;;;;;;;;;;;;1016206;29;883;-18
2021/10/27 01:25:28;;;;;;;;;;;;;;;;;;1016127;29;1049;-18
2021/10/27 01:26:05;;;;;;;;;;;;;;;;;;1019624;29;665;-18
2021/10/27 01:26:37;;;;;;;;;;;;;;;;;;1019289;29;1099;-17
2021/10/27 01:27:08;;;;;;;;;;;;;;;;;;1019502;29;902;-18
2021/10/27 01:27:40;;;;;;;;;;;;;;;;;;1015145;29;1174;-18
2021/10/27 01:28:11;;;;;;;;;;;;;;;;;;1014848;29;1461;-17
2021/10/27 01:28:41;;;;;;;;;;;;;;;;;;1011458;29;1285;-17
2021/10/27 01:29:12;;;;;;;;;;;;;;;;;;1015592;29;1175;-18
2021/10/27 01:29:42;;;;;;;;;;;;;;;;;;1016052;29;948;-18
2021/10/27 01:30:15;;;;;;;;;;;;;;;;;;1023401;29;1112;-17
2021/10/27 01:30:45;;;;;;;;;;;;;;;;;;1015478;29;1059;-18
2021/10/27 01:31:16;;;;;;;;;;;;;;;;;;1015387;29;1221;-17
2021/10/27 01:31:46;;;;;;;;;;;;;;;;;;1015120;29;1029;-17
2021/10/27 01:32:23;;;;;;;;;;;;;;;;;;1007860;29;817;-18
2021/10/27 01:32:53;;;;;;;;;;;;;;;;;;1016111;29;982;-17
2021/10/27 01:33:23;;;;;;;;;;;;;;;;;;1016195;29;954;-18
2021/10/27 01:33:54;;;;;;;;;;;;;;;;;;1015808;29;1699;-18
2021/10/27 01:34:24;;;;;;;;;;;;;;;;;;1016226;29;1267;-17
2021/10/27 01:34:55;;;;;;;;;;;;;;;;;;1016092;29;1259;-17
2021/10/27 01:35:25;;;;;;;;;;;;;;;;;;1016066;29;848;-18
2021/10/27 01:35:56;;;;;;;;;;;;;;;;;;1016264;29;812;-17
2021/10/27 01:36:29;;;;;;;;;;;;;;;;;;1022868;29;1370;-17
2021/10/27 01:37:00;;;;;;;;;;;;;;;;;;1023293;29;1114;-18
2021/10/27 01:37:30;;;;;;;;;;;;;;;;;;1014843;29;1316;-17
2021/10/27 01:38:01;;;;;;;;;;;;;;;;;;1014868;29;1153;-17
2021/10/27 01:38:32;;;;;;;;;;;;;;;;;;1011251;29;1966;-18
2021/10/27 01:39:03;;;;;;;;;;;;;;;;;;1015441;29;1426;-17
2021/10/27 01:39:33;;;;;;;;;;;;;;;;;;1026814;28;1171;-17
2021/10/27 01:40:06;;;;;;;;;;;;;;;;;;1027509;28;969;-17
2021/10/27 01:40:36;;;;;;;;;;;;;;;;;;1026401;28;1382;-17
2021/10/27 01:41:07;;;;;;;;;;;;;;;;;;1023287;29;1257;-17
2021/10/27 01:41:37;;;;;;;;;;;;;;;;;;1022920;29;1480;-17
2021/10/27 01:42:08;;;;;;;;;;;;;;;;;;1023184;29;1170;-17
2021/10/27 01:42:38;;;;;;;;;;;;;;;;;;1023316;29;1294;-18
2021/10/27 01:43:09;;;;;;;;;;;;;;;;;;1022956;29;1368;-18
2021/10/27 01:43:46;;;;;;;;;;;;;;;;;;1023039;29;978;-17
2021/10/27 01:44:17;;;;;;;;;;;;;;;;;;1019228;29;1148;-17
2021/10/27 01:44:48;;;;;;;;;;;;;;;;;;1019070;29;1262;-18
2021/10/27 01:45:18;;;;;;;;;;;;;;;;;;1019404;29;984;-18
2021/10/27 01:45:49;;;;;;;;;;;;;;;;;;1019137;29;874;-18
2021/10/27 01:46:26;;;;;;;;;;;;;;;;;;1023512;28;1203;-17
2021/10/27 01:46:57;;;;;;;;;;;;;;;;;;1027109;28;1437;-17
2021/10/27 01:47:27;;;;;;;;;;;;;;;;;;1019084;29;1149;-18
2021/10/27 01:47:58;;;;;;;;;;;;;;;;;;1019222;29;1344;-18
2021/10/27 01:48:28;;;;;;;;;;;;;;;;;;1019074;29;1129;-17
2021/10/27 01:48:59;;;;;;;;;;;;;;;;;;1011586;29;867;-18
2021/10/27 01:49:30;;;;;;;;;;;;;;;;;;1027099;28;1277;-16
2021/10/27 01:50:00;;;;;;;;;;;;;;;;;;1027013;28;1643;-17
2021/10/27 01:50:33;;;;;;;;;;;;;;;;;;1027184;28;1284;-17
2021/10/27 01:51:03;;;;;;;;;;;;;;;;;;1019038;29;1342;-18
2021/10/27 01:51:34;;;;;;;;;;;;;;;;;;1015318;29;943;-18
2021/10/27 01:52:05;;;;;;;;;;;;;;;;;;1015465;29;1069;-17
2021/10/27 01:52:35;;;;;;;;;;;;;;;;;;1015348;29;1508;-17
2021/10/27 01:53:05;;;;;;;;;;;;;;;;;;1023588;28;1217;-17
2021/10/27 01:53:36;;;;;;;;;;;;;;;;;;1023269;29;1466;-17
2021/10/27 01:54:06;;;;;;;;;;;;;;;;;;1023510;29;1154;-18
2021/10/27 01:54:37;;;;;;;;;;;;;;;;;;1023431;29;1200;-17
2021/10/27 01:55:08;;;;;;;;;;;;;;;;;;1019868;29;1192;-18
2021/10/27 01:55:42;;;;;;;;;;;;;;;;;;1023114;29;997;-18
2021/10/27 01:56:12;;;;;;;;;;;;;;;;;;1023071;29;1443;-17
2021/10/27 01:56:43;;;;;;;;;;;;;;;;;;1023124;29;1130;-18
2021/10/27 01:57:13;;;;;;;;;;;;;;;;;;1022977;29;1002;-18
2021/10/27 01:57:43;;;;;;;;;;;;;;;;;;1019652;28;1226;-17
2021/10/27 01:58:14;;;;;;;;;;;;;;;;;;1019861;29;2000;-18
2021/10/27 01:58:44;;;;;;;;;;;;;;;;;;1027071;28;1070;-17
2021/10/27 01:59:16;;;;;;;;;;;;;;;;;;1026549;28;1490;-18
2021/10/27 01:59:47;;;;;;;;;;;;;;;;;;1027219;28;1172;-17
2021/10/27 02:00:17;;;;;;;;;;;;;;;;;;1022918;29;1020;-17
2021/10/27 02:00:48;;;;;;;;;;;;;;;;;;1019163;29;1029;-18
2021/10/27 02:01:18;;;;;;;;;;;;;;;;;;1019271;29;1207;-18
2021/10/27 02:01:49;;;;;;;;;;;;;;;;;;1019312;29;934;-18
2021/10/27 02:02:19;;;;;;;;;;;;;;;;;;1019998;29;945;-17
2021/10/27 02:02:50;;;;;;;;;;;;;;;;;;1019925;29;964;-18
2021/10/27 02:03:20;;;;;;;;;;;;;;;;;;1019862;29;974;-18
2021/10/27 02:03:51;;;;;;;;;;;;;;;;;;1027149;28;1059;-18
2021/10/27 02:04:21;;;;;;;;;;;;;;;;;;1019154;29;939;-18
2021/10/27 02:04:52;;;;;;;;;;;;;;;;;;1019208;29;1105;-17
2021/10/27 02:05:22;;;;;;;;;;;;;;;;;;1019256;29;1043;-17
2021/10/27 02:05:52;;;;;;;;;;;;;;;;;;1014985;29;1523;-17
2021/10/27 02:06:23;;;;;;;;;;;;;;;;;;1019943;29;1192;-18
2021/10/27 02:06:53;;;;;;;;;;;;;;;;;;1019636;28;1211;-17
2021/10/27 02:07:23;;;;;;;;;;;;;;;;;;1019816;29;1158;-18
2021/10/27 02:07:54;;;;;;;;;;;;;;;;;;1019972;29;994;-18
2021/10/27 02:08:24;;;;;;;;;;;;;;;;;;1019719;29;1261;-18
2021/10/27 02:08:54;;;;;;;;;;;;;;;;;;1019742;28;1221;-18
2021/10/27 02:09:25;;;;;;;;;;;;;;;;;;1020011;29;776;-18
2021/10/27 02:09:56;;;;;;;;;;;;;;;;;;1019893;28;929;-17
2021/10/27 02:10:26;;;;;;;;;;;;;;;;;;1019503;28;1771;-18
2021/10/27 02:10:56;;;;;;;;;;;;;;;;;;1019627;29;1528;-17
2021/10/27 02:11:27;;;;;;;;;;;;;;;;;;1023048;29;1165;-18
2021/10/27 02:11:57;;;;;;;;;;;;;;;;;;1023248;29;1208;-18
2021/10/27 02:12:31;;;;;;;;;;;;;;;;;;1023057;29;1104;-18
2021/10/27 02:13:02;;;;;;;;;;;;;;;;;;1022937;29;864;-18
2021/10/27 02:13:32;;;;;;;;;;;;;;;;;;1019870;28;898;-18
2021/10/27 02:14:03;;;;;;;;;;;;;;;;;;1019998;29;930;-17
2021/10/27 02:14:34;;;;;;;;;;;;;;;;;;1019932;29;974;-17
2021/10/27 02:15:05;;;;;;;;;;;;;;;;;;1019951;29;882;-17
2021/10/27 02:15:35;;;;;;;;;;;;;;;;;;1019570;28;1158;-18
2021/10/27 02:16:08;;;;;;;;;;;;;;;;;;1019947;29;1563;-17
2021/10/27 02:16:38;;;;;;;;;;;;;;;;;;1019797;29;1127;-18
2021/10/27 02:17:09;;;;;;;;;;;;;;;;;;1019889;29;1073;-17
2021/10/27 02:17:39;;;;;;;;;;;;;;;;;;1019769;29;1041;-17
2021/10/27 02:18:10;;;;;;;;;;;;;;;;;;1023118;29;1123;-18
2021/10/27 02:18:41;;;;;;;;;;;;;;;;;;1023084;29;1919;-18
2021/10/27 02:19:11;;;;;;;;;;;;;;;;;;1022900;29;950;-18
2021/10/27 02:19:42;;;;;;;;;;;;;;;;;;1023166;29;1745;-18
2021/10/27 02:20:12;;;;;;;;;;;;;;;;;;1023173;29;954;-17
2021/10/27 02:20:43;;;;;;;;;;;;;;;;;;1023113;29;938;-18
2021/10/27 02:21:13;;;;;;;;;;;;;;;;;;1019896;29;992;-17
2021/10/27 02:21:44;;;;;;;;;;;;;;;;;;1018153;29;1367;-18
2021/10/27 02:22:14;;;;;;;;;;;;;;;;;;1019145;29;1264;-17
2021/10/27 02:22:44;;;;;;;;;;;;;;;;;;1019165;29;1513;-17
2021/10/27 02:23:15;;;;;;;;;;;;;;;;;;1019278;29;859;-18
2021/10/27 02:23:45;;;;;;;;;;;;;;;;;;1019961;29;938;-17
2021/10/27 02:24:16;;;;;;;;;;;;;;;;;;1019831;28;878;-18
2021/10/27 02:24:46;;;;;;;;;;;;;;;;;;1019986;29;886;-18
2021/10/27 02:25:17;;;;;;;;;;;;;;;;;;1019849;29;950;-17
2021/10/27 02:25:50;;;;;;;;;;;;;;;;;;1019785;29;1233;-17
2021/10/27 02:26:20;;;;;;;;;;;;;;;;;;1019956;29;768;-18
2021/10/27 02:26:53;;;;;;;;;;;;;;;;;;1019981;29;823;-18
2021/10/27 02:27:23;;;;;;;;;;;;;;;;;;1019900;28;957;-17
2021/10/27 02:27:53;;;;;;;;;;;;;;;;;;1019926;29;958;-18
2021/10/27 02:28:25;;;;;;;;;;;;;;;;;;1019716;29;807;-18
2021/10/27 02:28:56;;;;;;;;;;;;;;;;;;1019950;29;906;-18
2021/10/27 02:29:26;;;;;;;;;;;;;;;;;;1019600;28;1298;-17
2021/10/27 02:29:57;;;;;;;;;;;;;;;;;;1030944;28;1029;-17
2021/10/27 02:30:27;;;;;;;;;;;;;;;;;;1031204;28;1001;-17
2021/10/27 02:30:57;;;;;;;;;;;;;;;;;;1031079;28;1200;-18
2021/10/27 02:31:28;;;;;;;;;;;;;;;;;;1031171;28;847;-18
2021/10/27 02:31:58;;;;;;;;;;;;;;;;;;1019948;28;851;-18
2021/10/27 02:32:29;;;;;;;;;;;;;;;;;;1019802;29;953;-18
2021/10/27 02:33:00;;;;;;;;;;;;;;;;;;1019269;29;946;-18
2021/10/27 02:33:30;;;;;;;;;;;;;;;;;;1018651;29;1504;-17
2021/10/27 02:34:04;;;;;;;;;;;;;;;;;;1019092;29;1051;-17
2021/10/27 02:34:35;;;;;;;;;;;;;;;;;;1019319;29;1290;-18
2021/10/27 02:35:05;;;;;;;;;;;;;;;;;;1023016;29;1110;-17
2021/10/27 02:35:36;;;;;;;;;;;;;;;;;;1023063;29;954;-18
2021/10/27 02:36:06;;;;;;;;;;;;;;;;;;1023070;29;1064;-18
2021/10/27 02:36:36;;;;;;;;;;;;;;;;;;1023075;29;835;-18
2021/10/27 02:37:07;;;;;;;;;;;;;;;;;;1020033;29;981;-18
2021/10/27 02:37:38;;;;;;;;;;;;;;;;;;1030880;28;1006;-18
2021/10/27 02:38:08;;;;;;;;;;;;;;;;;;1031165;28;1131;-17
2021/10/27 02:38:41;;;;;;;;;;;;;;;;;;1030941;28;1967;-17
2021/10/27 02:39:12;;;;;;;;;;;;;;;;;;1018132;29;1240;-18
2021/10/27 02:39:42;;;;;;;;;;;;;;;;;;1011398;29;1129;-18
2021/10/27 02:40:14;;;;;;;;;;;;;;;;;;1011124;29;1952;-17
2021/10/27 02:40:45;;;;;;;;;;;;;;;;;;1011997;29;1034;-17
2021/10/27 02:41:15;;;;;;;;;;;;;;;;;;1018770;29;1427;-17
2021/10/27 02:41:46;;;;;;;;;;;;;;;;;;1019162;29;989;-18
2021/10/27 02:42:16;;;;;;;;;;;;;;;;;;1018862;29;969;-17
2021/10/27 02:42:47;;;;;;;;;;;;;;;;;;1018869;29;1748;-17
2021/10/27 02:43:17;;;;;;;;;;;;;;;;;;1019042;29;1057;-17
2021/10/27 02:43:48;;;;;;;;;;;;;;;;;;1019253;29;939;-18
2021/10/27 02:44:19;;;;;;;;;;;;;;;;;;1010716;29;1235;-17
2021/10/27 02:44:49;;;;;;;;;;;;;;;;;;1007302;29;1110;-18
2021/10/27 02:45:20;;;;;;;;;;;;;;;;;;1007259;29;1058;-18
2021/10/27 02:45:50;;;;;;;;;;;;;;;;;;1007509;29;1015;-18
2021/10/27 02:46:21;;;;;;;;;;;;;;;;;;1019076;29;935;-18
2021/10/27 02:46:51;;;;;;;;;;;;;;;;;;1018713;29;1430;-17
2021/10/27 02:47:22;;;;;;;;;;;;;;;;;;1019103;29;1361;-18
2021/10/27 02:47:52;;;;;;;;;;;;;;;;;;1015785;29;1320;-17
2021/10/27 02:48:22;;;;;;;;;;;;;;;;;;1015506;29;985;-18
2021/10/27 02:48:55;;;;;;;;;;;;;;;;;;1015103;29;1186;-17
2021/10/27 02:49:25;;;;;;;;;;;;;;;;;;1014810;29;1345;-18
2021/10/27 02:49:56;;;;;;;;;;;;;;;;;;1007217;29;998;-18
2021/10/27 02:50:27;;;;;;;;;;;;;;;;;;1007356;29;920;-18
2021/10/27 02:50:57;;;;;;;;;;;;;;;;;;1002881;29;1299;-18
2021/10/27 02:51:28;;;;;;;;;;;;;;;;;;1003712;29;995;-18
2021/10/27 02:51:58;;;;;;;;;;;;;;;;;;1003247;29;1358;-17
2021/10/27 02:52:29;;;;;;;;;;;;;;;;;;1003570;29;1013;-17
2021/10/27 02:52:59;;;;;;;;;;;;;;;;;;1011224;29;1156;-18
2021/10/27 02:53:30;;;;;;;;;;;;;;;;;;1011018;29;1176;-18
2021/10/27 02:54:00;;;;;;;;;;;;;;;;;;1011500;29;1359;-18
2021/10/27 02:54:31;;;;;;;;;;;;;;;;;;1011190;29;848;-18
2021/10/27 02:55:01;;;;;;;;;;;;;;;;;;1015929;29;902;-18
2021/10/27 02:55:32;;;;;;;;;;;;;;;;;;1015798;29;902;-18
2021/10/27 02:56:03;;;;;;;;;;;;;;;;;;1016002;29;910;-18
2021/10/27 02:56:33;;;;;;;;;;;;;;;;;;1015729;29;970;-17
2021/10/27 02:57:04;;;;;;;;;;;;;;;;;;1016034;29;997;-18
2021/10/27 02:57:34;;;;;;;;;;;;;;;;;;1015356;29;1458;-18
2021/10/27 02:58:04;;;;;;;;;;;;;;;;;;1016019;29;1118;-18
2021/10/27 02:58:34;;;;;;;;;;;;;;;;;;1015457;29;1978;-17
2021/10/27 02:59:05;;;;;;;;;;;;;;;;;;1015931;29;803;-18
2021/10/27 02:59:35;;;;;;;;;;;;;;;;;;1015688;29;1025;-18
2021/10/27 03:00:07;;;;;;;;;;;;;;;;;;1016041;29;571;-18
2021/10/27 03:00:37;;;;;;;;;;;;;;;;;;1015758;29;906;-18
2021/10/27 03:01:08;;;;;;;;;;;;;;;;;;1015801;29;1261;-18
2021/10/27 03:01:38;;;;;;;;;;;;;;;;;;1015420;29;1422;-17
2021/10/27 03:02:08;;;;;;;;;;;;;;;;;;1016028;29;930;-17
2021/10/27 03:02:39;;;;;;;;;;;;;;;;;;1015571;29;867;-18
2021/10/27 03:03:09;;;;;;;;;;;;;;;;;;1015956;29;902;-18
2021/10/27 03:03:39;;;;;;;;;;;;;;;;;;1015766;29;835;-18
2021/10/27 03:04:09;;;;;;;;;;;;;;;;;;1015782;29;981;-17
2021/10/27 03:04:40;;;;;;;;;;;;;;;;;;1015768;29;1026;-18
2021/10/27 03:05:10;;;;;;;;;;;;;;;;;;1015225;29;1544;-17
2021/10/27 03:05:41;;;;;;;;;;;;;;;;;;1015448;29;1066;-18
2021/10/27 03:06:12;;;;;;;;;;;;;;;;;;1015199;29;1090;-18
2021/10/27 03:06:42;;;;;;;;;;;;;;;;;;1006734;29;1348;-17
2021/10/27 03:07:12;;;;;;;;;;;;;;;;;;1007408;29;1032;-17
2021/10/27 03:07:43;;;;;;;;;;;;;;;;;;1010992;29;1080;-18
2021/10/27 03:08:13;;;;;;;;;;;;;;;;;;1011261;29;1004;-18
2021/10/27 03:08:45;;;;;;;;;;;;;;;;;;1022715;29;1064;-18
2021/10/27 03:09:16;;;;;;;;;;;;;;;;;;1022768;29;914;-18
2021/10/27 03:09:46;;;;;;;;;;;;;;;;;;1015715;29;860;-18
2021/10/27 03:10:17;;;;;;;;;;;;;;;;;;1015984;29;930;-18
2021/10/27 03:10:47;;;;;;;;;;;;;;;;;;1015738;29;819;-18
2021/10/27 03:11:18;;;;;;;;;;;;;;;;;;1015698;29;926;-18
2021/10/27 03:11:48;;;;;;;;;;;;;;;;;;1015184;29;1258;-17
2021/10/27 03:12:19;;;;;;;;;;;;;;;;;;1018869;29;1198;-18
2021/10/27 03:12:49;;;;;;;;;;;;;;;;;;1018921;29;1179;-18
2021/10/27 03:13:20;;;;;;;;;;;;;;;;;;1018498;29;1414;-17
2021/10/27 03:13:50;;;;;;;;;;;;;;;;;;1007254;29;1487;-17
2021/10/27 03:14:20;;;;;;;;;;;;;;;;;;1007275;29;1010;-18
2021/10/27 03:14:51;;;;;;;;;;;;;;;;;;1007334;29;1025;-18
2021/10/27 03:15:21;;;;;;;;;;;;;;;;;;1011090;29;1153;-18
2021/10/27 03:15:52;;;;;;;;;;;;;;;;;;1018570;29;1488;-18
2021/10/27 03:16:22;;;;;;;;;;;;;;;;;;1018983;29;1236;-17
2021/10/27 03:16:52;;;;;;;;;;;;;;;;;;1019172;29;930;-18
2021/10/27 03:17:23;;;;;;;;;;;;;;;;;;1015289;29;1234;-18
2021/10/27 03:17:53;;;;;;;;;;;;;;;;;;1015375;29;1488;-18
2021/10/27 03:18:23;;;;;;;;;;;;;;;;;;1015120;29;1939;-17
2021/10/27 03:18:53;;;;;;;;;;;;;;;;;;1015403;29;820;-18
2021/10/27 03:19:24;;;;;;;;;;;;;;;;;;1015422;29;950;-18
2021/10/27 03:19:54;;;;;;;;;;;;;;;;;;1015691;29;863;-18
2021/10/27 03:20:24;;;;;;;;;;;;;;;;;;1015650;29;887;-18
2021/10/27 03:20:55;;;;;;;;;;;;;;;;;;1015780;29;800;-18
2021/10/27 03:21:25;;;;;;;;;;;;;;;;;;1015731;29;985;-18
2021/10/27 03:21:56;;;;;;;;;;;;;;;;;;1015819;29;899;-18
2021/10/27 03:22:26;;;;;;;;;;;;;;;;;;1015598;29;922;-18
2021/10/27 03:22:56;;;;;;;;;;;;;;;;;;1015826;29;1129;-18
2021/10/27 03:23:27;;;;;;;;;;;;;;;;;;1018905;29;1005;-17
2021/10/27 03:24:00;;;;;;;;;;;;;;;;;;1018799;29;921;-18
2021/10/27 03:24:30;;;;;;;;;;;;;;;;;;1018752;29;883;-18
2021/10/27 03:25:01;;;;;;;;;;;;;;;;;;1019063;29;894;-17
2021/10/27 03:25:32;;;;;;;;;;;;;;;;;;1014754;29;1085;-18
2021/10/27 03:26:02;;;;;;;;;;;;;;;;;;1015219;29;962;-17
2021/10/27 03:26:32;;;;;;;;;;;;;;;;;;1014447;29;1674;-17
2021/10/27 03:27:03;;;;;;;;;;;;;;;;;;1014922;29;1184;-18
2021/10/27 03:27:33;;;;;;;;;;;;;;;;;;1015627;29;1038;-18
2021/10/27 03:28:04;;;;;;;;;;;;;;;;;;1015866;29;982;-18
2021/10/27 03:28:34;;;;;;;;;;;;;;;;;;1015498;29;899;-18
2021/10/27 03:29:04;;;;;;;;;;;;;;;;;;1015596;29;1446;-18
2021/10/27 03:29:35;;;;;;;;;;;;;;;;;;1015541;29;1693;-18
2021/10/27 03:30:06;;;;;;;;;;;;;;;;;;1018880;29;1114;-18
2021/10/27 03:30:36;;;;;;;;;;;;;;;;;;1018680;29;994;-18
2021/10/27 03:31:06;;;;;;;;;;;;;;;;;;1019119;29;883;-18
2021/10/27 03:31:37;;;;;;;;;;;;;;;;;;1018853;29;951;-18
2021/10/27 03:32:08;;;;;;;;;;;;;;;;;;1015878;29;955;-18
2021/10/27 03:32:38;;;;;;;;;;;;;;;;;;1015617;29;839;-18
2021/10/27 03:33:09;;;;;;;;;;;;;;;;;;1022509;28;961;-18
2021/10/27 03:33:39;;;;;;;;;;;;;;;;;;1022323;29;1021;-18
2021/10/27 03:34:10;;;;;;;;;;;;;;;;;;1022793;29;958;-18
2021/10/27 03:34:40;;;;;;;;;;;;;;;;;;1022776;29;1038;-18
2021/10/27 03:35:11;;;;;;;;;;;;;;;;;;1015710;29;911;-18
2021/10/27 03:35:41;;;;;;;;;;;;;;;;;;1015248;29;1279;-17